Time;durP1;ratioP1;P1;durP2;ratioP2;P2;SDS_P1;SDS_P2;PMS_P1;PMS_P2;Temp;Humidity;BMP_temperature;BMP_pressure;BME280_temperature;BME280_humidity;BME280_pressure;Samples;Min_cycle;Max_cycle;Signal;HPM_P1;HPM_P2
2022/03/07 00:01:44;;;;;;;;;;;;;;;17.58;53.85;102939.50;5003996;28;19926;-85
2022/03/07 00:07:13;;;;;;;;;;;;;;;17.56;54.16;102931.63;5010560;28;19921;-84
2022/03/07 00:09:40;;;;;;;;;;;;;;;17.56;53.88;102936.84;4983659;28;19918;-84
2022/03/07 00:12:07;;;;;;;;;;;;;;;17.56;54.01;102935.97;4999570;28;19914;-84
2022/03/07 00:14:43;;;;;;;;;;;;;;;17.56;53.68;102938.59;4983197;28;19921;-85
2022/03/07 00:17:10;;;;;;;;;;;;;;;17.56;53.63;102938.59;4983395;28;19945;-84
2022/03/07 00:19:43;;;;;;;;;;;;;;;17.56;53.54;102930.78;5008394;28;19994;-85
2022/03/07 00:22:09;;;;;;;;;;;;;;;17.53;53.84;102934.19;4989779;28;19977;-84
2022/03/07 00:24:37;;;;;;;;;;;;;;;17.54;53.56;102943.75;5002595;28;19917;-84
2022/03/07 00:27:11;;;;;;;;;;;;;;;17.55;53.86;102949.81;4997906;28;19953;-83
2022/03/07 00:29:52;;;;;;;;;;;;;;;17.54;53.89;102942.88;4999146;28;19946;-84
2022/03/07 00:38:27;;;;;;;;;;;;;;;17.53;53.97;102943.69;4994002;28;19920;-84
2022/03/07 00:40:53;;;;;;;;;;;;;;;17.53;53.65;102946.28;4983069;28;19898;-84
2022/03/07 00:43:22;;;;;;;;;;;;;;;17.52;54.04;102948.03;5001875;28;19948;-84
2022/03/07 00:45:49;;;;;;;;;;;;;;;17.52;54.21;102940.22;5002540;28;19902;-84
2022/03/07 00:48:16;;;;;;;;;;;;;;;17.52;54.07;102947.16;4995718;28;19942;-84
2022/03/07 00:50:45;;;;;;;;;;;;;;;17.50;53.88;102952.31;4983209;28;19973;-84
2022/03/07 00:53:11;;;;;;;;;;;;;;;17.51;53.79;102958.41;4980950;28;19966;-85
2022/03/07 00:55:53;;;;;;;;;;;;;;;17.51;53.81;102963.59;4982654;28;19918;-84
2022/03/07 00:58:21;;;;;;;;;;;;;;;17.51;53.91;102963.59;4968946;29;19939;-84
2022/03/07 01:00:55;;;;;;;;;;;;;;;17.50;54.28;102965.31;4980033;28;19994;-84
2022/03/07 01:03:22;;;;;;;;;;;;;;;17.50;54.14;102965.31;4982290;28;19906;-83
2022/03/07 01:05:54;;;;;;;;;;;;;;;17.47;54.10;102960.94;4982074;28;19944;-84
2022/03/07 01:08:39;;;;;;;;;;;;;;;17.48;54.02;102967.00;4981390;28;19914;-85
2022/03/07 01:11:11;;;;;;;;;;;;;;;17.48;54.17;102969.63;4981391;28;20183;-84
2022/03/07 01:13:40;;;;;;;;;;;;;;;17.47;53.84;102971.34;4978278;28;19918;-84
2022/03/07 01:16:08;;;;;;;;;;;;;;;17.47;53.71;102968.75;4978706;29;19942;-85
2022/03/07 01:21:55;;;;;;;;;;;;;;;17.47;53.55;102973.94;4997923;28;19926;-85
2022/03/07 01:24:30;;;;;;;;;;;;;;;17.47;53.76;102970.47;4973778;29;19915;-84
2022/03/07 01:27:01;;;;;;;;;;;;;;;17.47;53.44;102975.69;4963012;28;19986;-85
2022/03/07 01:29:33;;;;;;;;;;;;;;;17.46;53.73;102966.09;4986025;28;20002;-85
2022/03/07 01:35:11;;;;;;;;;;;;;;;17.45;53.44;102962.63;4986760;28;19922;-85
2022/03/07 01:37:41;;;;;;;;;;;;;;;17.45;53.53;102956.53;4978469;29;19925;-84
2022/03/07 01:40:11;;;;;;;;;;;;;;;17.45;53.61;102961.75;4965379;29;19919;-85
2022/03/07 01:45:45;;;;;;;;;;;;;;;17.43;53.43;102969.50;4978393;29;19925;-85
2022/03/07 01:48:31;;;;;;;;;;;;;;;17.43;53.41;102961.69;4945177;29;19947;-85
2022/03/07 01:51:04;;;;;;;;;;;;;;;17.44;53.21;102967.78;4985131;28;19914;-85
2022/03/07 01:56:35;;;;;;;;;;;;;;;17.43;52.96;102955.63;4996888;28;19924;-85
2022/03/07 01:59:04;;;;;;;;;;;;;;;17.41;52.90;102960.78;4980079;28;19989;-85
2022/03/07 02:01:33;;;;;;;;;;;;;;;17.42;53.10;102959.03;4977890;28;19930;-85
2022/03/07 02:04:02;;;;;;;;;;;;;;;17.41;53.20;102960.78;4982170;28;19928;-85
2022/03/07 02:29:17;;;;;;;;;;;;;;;17.38;53.04;102947.69;5419622;23;19918;-85
2022/03/07 02:32:30;;;;;;;;;;;;;;;17.39;52.64;102945.97;4941604;29;19927;-84
2022/03/07 02:44:00;;;;;;;;;;;;;;;17.38;53.10;102944.22;4940076;29;19914;-84
2022/03/07 02:47:11;;;;;;;;;;;;;;;17.37;52.58;102939.84;4946753;28;19925;-86
2022/03/07 02:50:14;;;;;;;;;;;;;;;17.36;52.98;102938.97;4938472;29;19978;-85
2022/03/07 02:56:02;;;;;;;;;;;;;;;17.34;52.86;102922.44;4918684;29;20535;-85
2022/03/07 03:01:50;;;;;;;;;;;;;;;17.35;52.78;102925.91;4940729;29;19910;-86
2022/03/07 03:11:05;;;;;;;;;;;;;;;17.34;52.93;102927.66;4959838;28;19921;-86
2022/03/07 03:26:20;;;;;;;;;;;;;;;17.31;52.83;102922.38;4918915;29;20475;-85
2022/03/07 03:32:55;;;;;;;;;;;;;;;17.31;52.63;102922.38;4808025;29;19931;-86
2022/03/07 03:39:30;;;;;;;;;;;;;;;17.30;52.63;102923.19;4831865;29;19975;-86
2022/03/07 05:25:48;;;;;;;;;;;;;;;17.15;51.35;102931.50;5121222;23;19925;-83
2022/03/07 05:28:34;;;;;;;;;;;;;;;17.17;51.54;102928.94;4977798;28;19918;-83
2022/03/07 05:31:00;;;;;;;;;;;;;;;17.17;51.78;102932.41;4979114;28;19945;-81
2022/03/07 05:36:01;;;;;;;;;;;;;;;17.17;51.93;102926.34;5169611;23;19933;-84
2022/03/07 05:38:34;;;;;;;;;;;;;;;17.16;51.91;102937.56;4998876;28;19941;-84
2022/03/07 05:41:07;;;;;;;;;;;;;;;17.16;51.75;102937.56;4980947;28;19918;-84
2022/03/07 05:43:35;;;;;;;;;;;;;;;17.16;51.97;102937.56;4965545;28;19942;-85
2022/03/07 06:06:07;;;;;;;;;;;;;;;17.13;51.76;102958.31;4988947;28;20037;-81
2022/03/07 06:08:33;;;;;;;;;;;;;;;17.15;52.27;102959.25;4972211;28;19946;-80
2022/03/07 06:10:58;;;;;;;;;;;;;;;17.16;52.61;102953.19;4972794;28;19922;-80
2022/03/07 06:13:25;;;;;;;;;;;;;;;17.18;52.43;102959.31;4961264;28;20313;-80
2022/03/07 06:15:59;;;;;;;;;;;;;;;17.17;52.53;102960.16;4970566;28;19997;-82
2022/03/07 06:18:25;;;;;;;;;;;;;;;17.17;52.57;102960.16;4995763;28;19921;-80
2022/03/07 06:26:32;;;;;;;;;;;;;;;17.19;51.79;102951.56;5098553;23;19926;-83
2022/03/07 11:28:27;;;;;;;;;;;;;;;17.83;49.77;102863.75;5219628;23;19933;-84
2022/03/07 11:58:13;;;;;;;;;;;;;;;17.87;49.25;102849.91;5000644;28;19937;-83
2022/03/07 12:04:35;;;;;;;;;;;;;;;17.87;49.58;102836.88;5003244;28;20017;-83
2022/03/07 12:38:36;;;;;;;;;;;;;;;17.87;48.00;102809.97;5051274;23;19934;-84
2022/03/07 12:44:18;;;;;;;;;;;;;;;17.86;47.52;102806.50;5312536;23;19914;-84
2022/03/07 12:50:16;;;;;;;;;;;;;;;17.89;47.70;102785.72;4922716;29;19934;-84
2022/03/07 12:52:50;;;;;;;;;;;;;;;17.90;47.95;102794.41;4922206;29;19991;-85
2022/03/07 13:00:35;;;;;;;;;;;;;;;17.92;48.13;102782.31;5910285;23;19914;-84
2022/03/07 13:03:36;;;;;;;;;;;;;;;17.92;48.15;102776.19;4993676;28;19910;-84
2022/03/07 13:12:24;;;;;;;;;;;;;;;17.92;48.07;102764.06;4923555;29;19976;-84
2022/03/07 13:15:17;;;;;;;;;;;;;;;17.92;48.13;102766.69;4931729;29;19907;-85
2022/03/07 13:18:01;;;;;;;;;;;;;;;17.93;48.36;102767.56;4883316;29;19927;-84
2022/03/07 13:20:29;;;;;;;;;;;;;;;17.92;48.08;102758.88;4883906;29;19979;-84
2022/03/07 13:32:06;;;;;;;;;;;;;;;17.93;48.35;102752.78;5082116;23;19926;-84
2022/03/07 13:34:50;;;;;;;;;;;;;;;17.93;48.18;102747.59;4996524;28;19988;-84
2022/03/07 13:40:40;;;;;;;;;;;;;;;17.94;47.82;102738.91;4999616;28;19986;-85
2022/03/07 13:46:20;;;;;;;;;;;;;;;17.97;48.53;102725.09;4999343;28;19921;-84
2022/03/07 14:07:27;;;;;;;;;;;;;;;18.00;48.38;102722.53;4961509;28;19973;-84
2022/03/07 14:43:00;;;;;;;;;;;;;;;18.04;47.00;102691.34;1337930;26;19930;-84
2022/03/07 15:01:14;;;;;;;;;;;;;;;;;;;;;
2022/03/07 15:10:18;;;;;;;;;;;;;;;18.05;46.12;102653.13;4829661;29;19973;-84
2022/03/07 15:47:46;;;;;;;;;;;;;;;18.13;46.46;102591.63;5316711;23;19911;-84
2022/03/07 15:53:17;;;;;;;;;;;;;;;18.04;46.15;102587.16;5001450;28;19909;-82
2022/03/07 15:58:48;;;;;;;;;;;;;;;18.03;46.36;102577.59;4989935;28;19938;-82
2022/03/07 16:01:15;;;;;;;;;;;;;;;18.04;46.16;102583.66;4981589;28;20014;-82
2022/03/07 16:03:41;;;;;;;;;;;;;;;18.02;47.65;102577.56;4953881;28;19919;-81
2022/03/07 16:06:07;;;;;;;;;;;;;;;18.01;46.35;102576.69;4954728;28;19925;-81
2022/03/07 16:08:32;;;;;;;;;;;;;;;18.00;46.74;102579.25;4967291;28;19921;-81
2022/03/07 16:10:58;;;;;;;;;;;;;;;17.98;46.61;102580.97;4974063;28;19918;-80
2022/03/07 16:13:24;;;;;;;;;;;;;;;17.97;47.24;102572.28;5039908;23;20017;-81
2022/03/07 16:15:51;;;;;;;;;;;;;;;17.98;46.71;102580.97;5000661;28;20004;-81
2022/03/07 16:18:16;;;;;;;;;;;;;;;18.01;48.19;102570.59;4985221;28;19913;-81
2022/03/07 16:20:42;;;;;;;;;;;;;;;18.04;46.37;102575.84;4970068;28;19925;-81
2022/03/07 16:23:16;;;;;;;;;;;;;;;18.05;45.84;102575.00;4985903;28;20004;-81
2022/03/07 16:25:43;;;;;;;;;;;;;;;18.06;46.16;102566.34;4985624;28;19914;-80
2022/03/07 16:28:09;;;;;;;;;;;;;;;18.08;45.89;102569.84;4985310;28;19937;-80
2022/03/07 16:30:34;;;;;;;;;;;;;;;18.09;46.38;102576.78;5004578;28;19921;-81
2022/03/07 16:33:00;;;;;;;;;;;;;;;18.12;45.90;102570.75;5008448;28;19953;-81
2022/03/07 16:35:25;;;;;;;;;;;;;;;18.12;46.02;102566.44;4995592;28;19985;-81
2022/03/07 16:37:50;;;;;;;;;;;;;;;18.12;47.55;102569.03;4981530;28;19918;-81
2022/03/07 16:40:16;;;;;;;;;;;;;;;18.13;46.56;102564.69;4977554;28;19918;-81
2022/03/07 16:42:41;;;;;;;;;;;;;;;18.13;45.96;102573.38;4999638;28;19914;-80
2022/03/07 16:45:07;;;;;;;;;;;;;;;18.11;48.08;102569.88;5016520;28;20000;-81
2022/03/07 16:47:36;;;;;;;;;;;;;;;18.11;47.17;102567.28;4982590;28;19917;-81
2022/03/07 16:50:06;;;;;;;;;;;;;;;18.09;47.40;102554.25;4991429;28;19920;-81
2022/03/07 16:52:32;;;;;;;;;;;;;;;18.07;47.16;102560.25;4989087;28;19914;-81
2022/03/07 16:54:57;;;;;;;;;;;;;;;18.07;47.60;102561.16;4988108;28;20395;-80
2022/03/07 16:57:22;;;;;;;;;;;;;;;18.06;45.70;102554.19;4988028;28;19917;-81
2022/03/07 16:59:47;;;;;;;;;;;;;;;18.06;47.02;102555.91;4987807;28;19914;-81
2022/03/07 17:02:13;;;;;;;;;;;;;;;18.05;46.21;102549.84;4969787;28;19981;-80
2022/03/07 17:04:38;;;;;;;;;;;;;;;18.06;46.91;102555.91;4970247;28;19925;-81
2022/03/07 17:07:03;;;;;;;;;;;;;;;18.05;46.86;102552.44;4970314;28;19960;-81
2022/03/07 17:09:29;;;;;;;;;;;;;;;18.04;45.94;102552.41;4985988;28;19914;-80
2022/03/07 17:11:54;;;;;;;;;;;;;;;18.03;46.53;102551.53;4987101;28;19929;-80
2022/03/07 17:14:19;;;;;;;;;;;;;;;18.04;45.91;102550.66;4985482;28;20392;-80
2022/03/07 17:16:45;;;;;;;;;;;;;;;18.05;46.44;102554.16;5116749;23;19990;-79
2022/03/07 17:19:10;;;;;;;;;;;;;;;18.03;46.47;102548.94;4941342;29;19930;-80
2022/03/07 17:21:36;;;;;;;;;;;;;;;18.04;47.15;102557.63;4919868;29;19942;-80
2022/03/07 17:24:02;;;;;;;;;;;;;;;18.04;46.14;102558.50;4924710;29;19927;-79
2022/03/07 17:26:27;;;;;;;;;;;;;;;18.03;46.48;102561.06;4928562;29;19926;-79
2022/03/07 17:28:53;;;;;;;;;;;;;;;18.02;46.50;102567.13;4921518;29;20434;-79
2022/03/07 17:31:19;;;;;;;;;;;;;;;18.04;46.30;102568.91;4923015;29;20281;-80
2022/03/07 17:33:44;;;;;;;;;;;;;;;18.05;46.18;102564.56;4941177;29;19925;-80
2022/03/07 17:36:10;;;;;;;;;;;;;;;18.03;46.31;102572.38;4923352;29;19919;-79
2022/03/07 17:38:35;;;;;;;;;;;;;;;18.03;47.06;102575.00;4923654;29;19922;-79
2022/03/07 17:41:00;;;;;;;;;;;;;;;18.02;47.51;102569.75;4923178;29;19935;-80
2022/03/07 17:43:44;;;;;;;;;;;;;;;18.03;46.52;102564.56;4935237;28;19930;-82
2022/03/07 17:46:10;;;;;;;;;;;;;;;18.06;47.31;102574.16;4927306;29;19926;-79
2022/03/07 17:48:37;;;;;;;;;;;;;;;18.05;47.04;102568.06;4923087;29;19919;-79
2022/03/07 17:51:02;;;;;;;;;;;;;;;18.06;47.14;102569.81;4915061;29;19923;-81
2022/03/07 17:53:28;;;;;;;;;;;;;;;18.04;47.87;102570.66;4925777;29;20009;-80
2022/03/07 17:55:59;;;;;;;;;;;;;;;18.01;47.46;102570.59;4924002;29;20358;-80
2022/03/07 17:58:25;;;;;;;;;;;;;;;17.96;47.77;102570.50;4940398;29;19923;-80
2022/03/07 18:00:50;;;;;;;;;;;;;;;17.96;47.79;102569.63;4913738;29;19923;-80
2022/03/07 18:03:16;;;;;;;;;;;;;;;17.95;47.47;102573.97;4909158;29;20005;-80
2022/03/07 18:05:41;;;;;;;;;;;;;;;17.92;47.66;102576.53;4908222;29;19926;-80
2022/03/07 18:08:07;;;;;;;;;;;;;;;17.91;47.26;102566.97;4919026;29;19926;-80
2022/03/07 18:10:32;;;;;;;;;;;;;;;17.87;47.25;102575.56;4944458;29;20001;-80
2022/03/07 18:12:58;;;;;;;;;;;;;;;17.87;46.69;102575.56;4943515;29;19923;-81
2022/03/07 18:15:24;;;;;;;;;;;;;;;17.93;49.42;102580.03;4919463;29;19994;-82
2022/03/07 18:17:50;;;;;;;;;;;;;;;18.00;50.55;102571.44;4931077;29;20397;-80
2022/03/07 18:20:15;;;;;;;;;;;;;;;18.03;49.58;102571.47;4940261;29;19953;-79
2022/03/07 18:22:41;;;;;;;;;;;;;;;18.04;49.29;102571.50;4946881;28;19930;-80
2022/03/07 18:25:08;;;;;;;;;;;;;;;18.05;49.42;102567.16;4952104;29;19939;-81
2022/03/07 18:27:34;;;;;;;;;;;;;;;18.05;49.31;102565.47;4939377;29;19926;-82
2022/03/07 18:30:01;;;;;;;;;;;;;;;18.05;49.32;102560.25;5251707;23;19957;-80
2022/03/07 18:32:27;;;;;;;;;;;;;;;18.05;49.79;102562.88;4970819;28;20456;-79
2022/03/07 18:34:52;;;;;;;;;;;;;;;18.07;49.48;102566.38;5217978;23;20013;-78
2022/03/07 18:37:18;;;;;;;;;;;;;;;18.06;49.63;102561.13;4932907;29;20013;-81
2022/03/07 18:39:45;;;;;;;;;;;;;;;18.06;49.47;102562.00;4952788;29;19923;-80
2022/03/07 18:42:12;;;;;;;;;;;;;;;18.04;49.53;102560.22;4948145;29;19997;-79
2022/03/07 18:44:58;;;;;;;;;;;;;;;18.02;49.44;102565.41;4952246;29;19938;-83
2022/03/07 18:47:46;;;;;;;;;;;;;;;17.99;49.69;102559.28;4944625;29;19915;-79
2022/03/07 18:50:15;;;;;;;;;;;;;;;17.99;49.84;102567.09;4943287;29;19935;-79
2022/03/07 18:52:41;;;;;;;;;;;;;;;17.96;50.37;102562.69;4925794;29;20301;-80
2022/03/07 18:55:07;;;;;;;;;;;;;;;17.96;50.07;102559.22;4943120;29;20057;-80
2022/03/07 18:57:52;;;;;;;;;;;;;;;17.95;50.23;102565.28;4926689;29;19942;-82
2022/03/07 19:00:20;;;;;;;;;;;;;;;17.95;50.42;102568.75;4952353;29;19914;-82
2022/03/07 19:02:53;;;;;;;;;;;;;;;17.94;50.72;102566.13;4943361;29;19939;-82
2022/03/07 19:05:29;;;;;;;;;;;;;;;17.94;50.93;102566.13;4940293;29;19927;-81
2022/03/07 19:08:03;;;;;;;;;;;;;;;17.93;50.89;102567.88;4957947;29;20012;-84
2022/03/07 19:17:11;;;;;;;;;;;;;;;17.91;51.51;102553.06;4941871;29;19923;-84
2022/03/07 19:28:04;;;;;;;;;;;;;;;17.87;51.06;102549.53;5797486;23;19926;-83
2022/03/07 19:30:29;;;;;;;;;;;;;;;17.88;51.00;102546.09;4981585;28;19945;-83
2022/03/07 19:32:55;;;;;;;;;;;;;;;17.87;50.76;102550.41;4982651;28;19929;-84
2022/03/07 19:35:20;;;;;;;;;;;;;;;17.86;50.81;102543.44;4982793;28;19912;-84
2022/03/07 19:37:45;;;;;;;;;;;;;;;17.85;50.71;102540.81;4969032;28;20345;-79
2022/03/07 19:40:12;;;;;;;;;;;;;;;17.85;50.74;102546.88;4952100;28;19922;-82
2022/03/07 19:45:40;;;;;;;;;;;;;;;17.83;50.95;102545.13;4966216;28;19933;-77
2022/03/07 19:48:06;;;;;;;;;;;;;;;17.83;50.81;102548.63;4961034;28;19914;-78
2022/03/07 19:50:34;;;;;;;;;;;;;;;17.83;50.86;102547.72;4956087;28;19918;-78
2022/03/07 19:52:59;;;;;;;;;;;;;;;17.84;50.71;102546.88;4962035;28;19962;-78
2022/03/07 19:55:25;;;;;;;;;;;;;;;17.80;50.69;102548.50;4978967;28;19918;-80
2022/03/07 20:00:53;;;;;;;;;;;;;;;17.73;51.44;102543.19;4983236;28;19933;-80
2022/03/07 20:03:18;;;;;;;;;;;;;;;17.69;50.51;102556.13;4954976;29;19994;-79
2022/03/07 20:05:46;;;;;;;;;;;;;;;17.74;49.98;102547.53;4977034;28;19965;-80
2022/03/07 20:08:31;;;;;;;;;;;;;;;17.71;50.62;102547.50;4971821;28;19956;-84
2022/03/07 20:10:56;;;;;;;;;;;;;;;17.67;51.56;102538.75;4962169;28;19926;-79
2022/03/07 20:13:21;;;;;;;;;;;;;;;17.63;51.05;102535.19;4980044;28;19969;-79
2022/03/07 20:15:47;;;;;;;;;;;;;;;17.60;50.60;102535.16;4959079;29;20387;-80
2022/03/07 20:18:13;;;;;;;;;;;;;;;17.59;51.28;102540.34;4947875;28;20361;-80
2022/03/07 20:20:38;;;;;;;;;;;;;;;17.57;51.18;102539.44;4947946;28;19926;-80
2022/03/07 20:23:03;;;;;;;;;;;;;;;17.55;51.30;102535.91;4949626;28;19914;-80
2022/03/07 20:25:29;;;;;;;;;;;;;;;17.54;51.33;102536.78;4975167;28;20365;-80
2022/03/07 20:27:54;;;;;;;;;;;;;;;17.53;51.67;102528.09;4930112;29;19933;-80
2022/03/07 20:30:19;;;;;;;;;;;;;;;17.53;51.45;102528.09;4949637;28;20365;-80
2022/03/07 20:32:45;;;;;;;;;;;;;;;17.51;50.75;102529.81;4930502;28;19965;-81
2022/03/07 20:35:10;;;;;;;;;;;;;;;17.50;51.24;102528.03;4943341;28;19922;-79
2022/03/07 20:37:36;;;;;;;;;;;;;;;17.51;50.33;102531.50;4964298;28;19918;-79
2022/03/07 20:40:01;;;;;;;;;;;;;;;17.50;50.35;102533.25;4929776;28;19926;-79
2022/03/07 20:42:31;;;;;;;;;;;;;;;17.53;49.96;102535.00;4966307;28;19917;-83
2022/03/07 20:44:56;;;;;;;;;;;;;;;17.51;50.45;102532.41;4963155;28;19998;-79
2022/03/07 20:47:21;;;;;;;;;;;;;;;17.48;50.19;102529.72;4934809;29;19927;-80
2022/03/07 20:49:47;;;;;;;;;;;;;;;17.46;49.64;102537.53;4957715;28;20008;-80
2022/03/07 20:52:12;;;;;;;;;;;;;;;17.47;49.51;102543.59;4951374;29;19927;-80
2022/03/07 20:54:39;;;;;;;;;;;;;;;17.45;49.53;102530.56;4942973;29;19926;-79
2022/03/07 20:57:05;;;;;;;;;;;;;;;17.45;49.69;102534.91;4936820;28;19972;-80
2022/03/07 20:59:31;;;;;;;;;;;;;;;17.44;49.67;102530.53;4946341;28;19918;-79
2022/03/07 21:01:56;;;;;;;;;;;;;;;17.43;49.55;102527.03;4950832;29;19919;-79
2022/03/07 21:04:21;;;;;;;;;;;;;;;17.43;50.08;102529.66;4943233;29;19918;-79
2022/03/07 21:06:46;;;;;;;;;;;;;;;17.42;49.34;102535.72;4939885;28;19928;-79
2022/03/07 21:09:12;;;;;;;;;;;;;;;17.42;49.77;102529.63;4946368;28;19918;-79
2022/03/07 21:11:37;;;;;;;;;;;;;;;17.40;50.11;102524.41;4961817;28;19920;-79
2022/03/07 21:14:02;;;;;;;;;;;;;;;17.40;49.33;102531.34;4962554;28;19969;-80
2022/03/07 21:16:28;;;;;;;;;;;;;;;17.40;49.68;102523.53;4966694;28;19968;-79
2022/03/07 21:18:54;;;;;;;;;;;;;;;17.39;50.03;102520.03;4932540;28;20282;-79
2022/03/07 21:21:19;;;;;;;;;;;;;;;17.39;50.03;102517.44;4952741;28;19918;-79
2022/03/07 21:23:44;;;;;;;;;;;;;;;17.38;49.95;102518.28;4949352;28;19968;-79
2022/03/07 21:26:12;;;;;;;;;;;;;;;17.38;49.95;102514.81;4961918;28;19926;-79
2022/03/07 21:28:37;;;;;;;;;;;;;;;17.38;49.46;102507.88;4947762;28;19926;-79
2022/03/07 21:31:03;;;;;;;;;;;;;;;17.38;49.38;102509.63;4938108;29;20284;-80
2022/03/07 21:33:29;;;;;;;;;;;;;;;17.37;49.57;102505.25;4949182;28;19922;-80
2022/03/07 21:35:54;;;;;;;;;;;;;;;17.36;49.74;102512.19;4962455;28;19914;-79
2022/03/07 21:38:19;;;;;;;;;;;;;;;17.35;50.09;102512.16;4945918;28;19977;-79
2022/03/07 21:40:45;;;;;;;;;;;;;;;17.35;49.83;102513.00;4958929;28;19918;-79
2022/03/07 21:43:10;;;;;;;;;;;;;;;17.35;49.66;102518.22;4946788;28;19922;-79
2022/03/07 21:45:36;;;;;;;;;;;;;;;17.34;49.39;102516.47;4959781;28;19918;-79
2022/03/07 21:48:02;;;;;;;;;;;;;;;17.34;49.79;102526.03;4944627;29;20348;-79
2022/03/07 21:50:27;;;;;;;;;;;;;;;17.34;49.55;102529.50;4944217;28;19918;-79
2022/03/07 21:52:53;;;;;;;;;;;;;;;17.33;49.31;102525.13;4961455;28;19940;-80
2022/03/07 21:55:18;;;;;;;;;;;;;;;17.33;49.63;102530.31;4941631;29;20054;-79
2022/03/07 21:57:43;;;;;;;;;;;;;;;17.33;49.38;102529.44;4959763;29;20350;-79
2022/03/07 22:00:10;;;;;;;;;;;;;;;17.32;49.16;102536.38;4943513;28;19927;-80
2022/03/07 22:02:35;;;;;;;;;;;;;;;17.31;49.39;102537.25;4943192;29;19933;-80
2022/03/07 22:05:01;;;;;;;;;;;;;;;17.31;49.32;102539.84;4926289;29;19919;-80
2022/03/07 22:07:26;;;;;;;;;;;;;;;17.31;49.00;102546.75;4941973;28;20376;-80
2022/03/07 22:09:51;;;;;;;;;;;;;;;17.30;49.03;102542.41;4978203;28;20031;-79
2022/03/07 22:12:17;;;;;;;;;;;;;;;17.31;49.08;102544.16;4957225;28;19921;-80
2022/03/07 22:14:42;;;;;;;;;;;;;;;17.30;49.36;102532.88;4939663;28;19986;-80
2022/03/07 22:17:07;;;;;;;;;;;;;;;17.30;48.90;102526.81;4965737;28;19982;-80
2022/03/07 22:19:32;;;;;;;;;;;;;;;17.29;48.70;102523.34;4968236;28;20279;-81
2022/03/07 22:21:58;;;;;;;;;;;;;;;17.30;49.16;102522.47;4969224;28;19918;-80
2022/03/07 22:24:23;;;;;;;;;;;;;;;17.30;49.16;102521.59;4951628;29;19925;-81
2022/03/07 22:26:48;;;;;;;;;;;;;;;17.29;49.06;102528.53;4953115;28;19922;-80
2022/03/07 22:29:14;;;;;;;;;;;;;;;17.28;48.88;102521.56;4949631;28;19926;-80
2022/03/07 22:31:39;;;;;;;;;;;;;;;17.28;49.13;102530.25;4946497;28;19930;-80
2022/03/07 22:34:04;;;;;;;;;;;;;;;17.27;48.99;102523.31;4947890;29;19934;-80
2022/03/07 22:36:31;;;;;;;;;;;;;;;17.27;48.72;102532.84;4930610;28;19922;-80
2022/03/07 22:38:56;;;;;;;;;;;;;;;17.27;48.82;102522.44;4929631;29;19922;-80
2022/03/07 22:41:22;;;;;;;;;;;;;;;17.27;48.86;102531.09;4953224;28;19918;-81
2022/03/07 22:43:47;;;;;;;;;;;;;;;17.26;48.33;102526.72;4951330;29;19918;-80
2022/03/07 22:46:12;;;;;;;;;;;;;;;17.26;48.29;102525.88;4930261;29;19923;-81
2022/03/07 22:48:38;;;;;;;;;;;;;;;17.25;48.71;102524.13;4963509;28;20052;-81
2022/03/07 22:51:03;;;;;;;;;;;;;;;17.24;48.50;102538.84;4952376;28;19924;-81
2022/03/07 22:53:29;;;;;;;;;;;;;;;17.25;48.63;102529.31;4941360;29;20456;-80
2022/03/07 22:55:54;;;;;;;;;;;;;;;17.25;48.89;102526.72;4945528;29;19922;-81
2022/03/07 22:58:19;;;;;;;;;;;;;;;17.25;48.57;102531.94;4949696;28;19973;-81
2022/03/07 23:00:44;;;;;;;;;;;;;;;17.23;48.29;102529.28;4945776;28;19969;-81
2022/03/07 23:03:10;;;;;;;;;;;;;;;17.23;48.13;102526.69;4946203;28;20019;-81
2022/03/07 23:08:19;;;;;;;;;;;;;;;17.21;48.64;102533.59;4965758;28;19925;-81
2022/03/07 23:10:45;;;;;;;;;;;;;;;17.21;48.50;102527.50;4962882;28;20285;-80
2022/03/07 23:13:11;;;;;;;;;;;;;;;17.20;48.22;102534.44;4962172;28;19918;-81
2022/03/07 23:15:36;;;;;;;;;;;;;;;17.20;48.07;102531.84;4954895;29;19914;-81
2022/03/07 23:18:08;;;;;;;;;;;;;;;17.20;48.33;102536.16;4950547;29;19937;-81
2022/03/07 23:20:34;;;;;;;;;;;;;;;17.20;47.88;102534.44;4967651;28;19918;-81
2022/03/07 23:23:00;;;;;;;;;;;;;;;17.20;48.33;102530.94;4991193;28;19914;-81
2022/03/07 23:25:25;;;;;;;;;;;;;;;17.19;47.77;102527.47;4984727;28;19981;-81
2022/03/07 23:27:50;;;;;;;;;;;;;;;17.19;48.07;102524.88;4964837;28;19929;-80
2022/03/07 23:30:17;;;;;;;;;;;;;;;17.19;47.34;102526.59;4937339;29;19923;-80
2022/03/07 23:32:44;;;;;;;;;;;;;;;17.17;47.99;102526.56;4963437;28;19946;-80
2022/03/07 23:35:10;;;;;;;;;;;;;;;17.18;47.16;102530.94;4950807;29;19950;-80
2022/03/07 23:37:35;;;;;;;;;;;;;;;17.17;47.74;102529.16;4945353;29;19915;-80
2022/03/07 23:40:01;;;;;;;;;;;;;;;17.17;47.90;102520.50;4953178;28;19914;-81
2022/03/07 23:42:26;;;;;;;;;;;;;;;17.16;47.07;102524.81;4963064;28;19914;-80
2022/03/07 23:44:52;;;;;;;;;;;;;;;17.16;48.01;102524.81;4947625;28;20385;-81
2022/03/07 23:47:17;;;;;;;;;;;;;;;17.16;47.73;102513.53;4944923;29;20388;-81
2022/03/07 23:49:42;;;;;;;;;;;;;;;17.15;46.92;102515.25;4946818;28;20373;-80
2022/03/07 23:52:08;;;;;;;;;;;;;;;17.15;47.44;102512.66;4932863;29;19928;-80
2022/03/07 23:54:34;;;;;;;;;;;;;;;17.15;47.19;102503.97;4958380;28;19933;-80
2022/03/07 23:56:59;;;;;;;;;;;;;;;17.15;47.44;102509.19;4965689;28;19921;-80
2022/03/07 23:59:24;;;;;;;;;;;;;;;17.13;47.52;102508.28;4943211;29;19973;-80
